PWSweather.com
Personal Weather Stations
Station Observations
GEELONGWX1
Bell Post Hill, GeelongAU

Bell Post HillGeelongAU

Lat: -38.101, Lon: 144.326

Elevation: 204

Station Type: Davis Vantage Pro2

http://www.geelongweather.com

Latest ConditionsUpdated 6:50:01 PM GMT+10:10 Sunday, Sep 22, 2019
Currently Today's Max Today's Min Today's Average
Temperature 53.4°F11.9°C 61.1°F16.2°C 38.7°F3.7°C 51.0°F10.6°C
Dew Point 41.9°F5.5°C 45.6°F7.6°C 35.7°F2.1°C 41.1°F5.1°C
Winds 2.3 mph W3.7 kmh W 12.7 mph -20.4 kmh - - 5.5 mph 8.9 kmh
Wind Gusts 3.5 mph5.6 kmh 19.6 mph31.5 kmh - -
Humidity 65% 92% 44% 71%
Pressure 30.25 in1024.4 mb 30.28 in1025.4 mb 30.17 in1021.7 mb -
Precipitation - 0.01 in0.3 mm - -
Hour Temp Dew Point Humidity Winds Wind Gusts Pressure Precip Precip Rate Daily Precip Total
06:50 PM 53.4°F11.9°C 41.9°F5.5°C 65% 2.3 mph W3.7 kmh W 3.5 mph5.6 kmh 30.25 in1024.4 mb - 0.00 in0.0 mm 0.01 in0.3 mm
06:40 PM 53.7°F12.1°C 42.2°F5.7°C 65% 2.3 mph WNW3.7 kmh WNW 4.6 mph7.4 kmh 30.25 in1024.4 mb - 0.00 in0.0 mm 0.01 in0.3 mm
06:30 PM 54.1°F12.3°C 42.6°F5.9°C 65% 2.3 mph WSW3.7 kmh WSW 3.5 mph5.6 kmh 30.25 in1024.4 mb - 0.00 in0.0 mm 0.01 in0.3 mm
06:20 PM 54.4°F12.4°C 42.5°F5.8°C 64% 3.5 mph WSW5.6 kmh WSW 4.6 mph7.4 kmh 30.25 in1024.4 mb - 0.00 in0.0 mm 0.01 in0.3 mm
06:10 PM 54.8°F12.7°C 42.5°F5.8°C 63% 3.5 mph WSW5.6 kmh WSW 9.2 mph14.8 kmh 30.25 in1024.4 mb - 0.00 in0.0 mm 0.01 in0.3 mm
06:00 PM 55.3°F12.9°C 42.5°F5.8°C 62% 2.3 mph WSW3.7 kmh WSW 8.1 mph13.0 kmh 30.24 in1024.0 mb - 0.00 in0.0 mm 0.01 in0.3 mm
05:50 PM 55.9°F13.3°C 42.2°F5.7°C 60% 4.6 mph WSW7.4 kmh WSW 5.8 mph9.3 kmh 30.24 in1024.0 mb - 0.00 in0.0 mm 0.01 in0.3 mm
05:40 PM 56.6°F13.7°C 42.4°F5.8°C 59% 4.6 mph WSW7.4 kmh WSW 10.4 mph16.7 kmh 30.24 in1024.0 mb - 0.00 in0.0 mm 0.01 in0.3 mm
05:30 PM 57.4°F14.1°C 42.3°F5.7°C 57% 4.6 mph WSW7.4 kmh WSW 10.4 mph16.7 kmh 30.23 in1023.7 mb - 0.00 in0.0 mm 0.01 in0.3 mm
05:20 PM 57.7°F14.3°C 42.6°F5.9°C 57% 2.3 mph WSW3.7 kmh WSW 4.6 mph7.4 kmh 30.23 in1023.7 mb - 0.00 in0.0 mm 0.01 in0.3 mm
05:10 PM 57.9°F14.4°C 42.8°F6.0°C 57% 2.3 mph WSW3.7 kmh WSW 3.5 mph5.6 kmh 30.23 in1023.7 mb - 0.00 in0.0 mm 0.01 in0.3 mm
05:00 PM 58.2°F14.6°C 42.1°F5.6°C 55% 1.2 mph W1.9 kmh W 3.5 mph5.6 kmh 30.23 in1023.7 mb - 0.00 in0.0 mm 0.01 in0.3 mm
04:50 PM 58.4°F14.7°C 41.8°F5.4°C 54% 2.3 mph W3.7 kmh W 3.5 mph5.6 kmh 30.23 in1023.7 mb - 0.00 in0.0 mm 0.01 in0.3 mm
04:40 PM 58.8°F14.9°C 41.7°F5.4°C 53% 9.2 mph SW14.8 kmh SW 11.5 mph18.5 kmh 30.23 in1023.7 mb - 0.00 in0.0 mm 0.01 in0.3 mm
04:30 PM 58.8°F14.9°C 41.2°F5.1°C 52% 6.9 mph SW11.1 kmh SW 11.5 mph18.5 kmh 30.23 in1023.7 mb - 0.00 in0.0 mm 0.01 in0.3 mm
04:20 PM 59.0°F15.0°C 41.9°F5.5°C 53% 5.8 mph SW9.3 kmh SW 9.2 mph14.8 kmh 30.23 in1023.7 mb - 0.00 in0.0 mm 0.01 in0.3 mm
04:10 PM 59.0°F15.0°C 41.4°F5.2°C 52% 3.5 mph WSW5.6 kmh WSW 3.5 mph5.6 kmh 30.23 in1023.7 mb - 0.00 in0.0 mm 0.01 in0.3 mm
04:00 PM 59.3°F15.2°C 41.2°F5.1°C 51% 3.5 mph SW5.6 kmh SW 8.1 mph13.0 kmh 30.23 in1023.7 mb - 0.00 in0.0 mm 0.01 in0.3 mm
03:50 PM 59.6°F15.3°C 40.9°F4.9°C 50% 3.5 mph SW5.6 kmh SW 6.9 mph11.1 kmh 30.22 in1023.4 mb - 0.00 in0.0 mm 0.01 in0.3 mm
03:40 PM 59.6°F15.3°C 42.4°F5.8°C 53% 5.8 mph SW9.3 kmh SW 8.1 mph13.0 kmh 30.23 in1023.7 mb - 0.00 in0.0 mm 0.01 in0.3 mm
03:30 PM 59.8°F15.4°C 41.1°F5.1°C 50% 8.1 mph SW13.0 kmh SW 11.5 mph18.5 kmh 30.23 in1023.7 mb - 0.00 in0.0 mm 0.01 in0.3 mm
03:20 PM 60.1°F15.6°C 40.3°F4.6°C 48% 9.2 mph SW14.8 kmh SW 12.7 mph20.4 kmh 30.23 in1023.7 mb - 0.00 in0.0 mm 0.01 in0.3 mm
03:10 PM 60.5°F15.8°C 39.6°F4.2°C 46% 8.1 mph SW13.0 kmh SW 13.8 mph22.2 kmh 30.23 in1023.7 mb - 0.00 in0.0 mm 0.01 in0.3 mm
03:00 PM 61.0°F16.1°C 38.9°F3.8°C 44% 10.4 mph SW16.7 kmh SW 13.8 mph22.2 kmh 30.23 in1023.7 mb - 0.00 in0.0 mm 0.01 in0.3 mm
02:50 PM 61.1°F16.2°C 41.8°F5.4°C 49% 8.1 mph SW13.0 kmh SW 11.5 mph18.5 kmh 30.23 in1023.7 mb - 0.00 in0.0 mm 0.01 in0.3 mm
02:40 PM 60.9°F16.1°C 41.6°F5.3°C 49% 6.9 mph SW11.1 kmh SW 16.1 mph25.9 kmh 30.23 in1023.7 mb - 0.00 in0.0 mm 0.01 in0.3 mm
02:30 PM 60.8°F16.0°C 41.0°F5.0°C 48% 6.9 mph SSW11.1 kmh SSW 10.4 mph16.7 kmh 30.23 in1023.7 mb - 0.00 in0.0 mm 0.01 in0.3 mm
02:20 PM 60.2°F15.7°C 40.9°F4.9°C 49% 8.1 mph SW13.0 kmh SW 9.2 mph14.8 kmh 30.23 in1023.7 mb - 0.00 in0.0 mm 0.01 in0.3 mm
02:10 PM 60.2°F15.7°C 41.0°F5.0°C 49% 9.2 mph SSW14.8 kmh SSW 15.0 mph24.1 kmh 30.23 in1023.7 mb - 0.00 in0.0 mm 0.01 in0.3 mm
02:00 PM 60.4°F15.8°C 40.6°F4.8°C 48% 10.4 mph SW16.7 kmh SW 15.0 mph24.1 kmh 30.23 in1023.7 mb - 0.00 in0.0 mm 0.01 in0.3 mm
01:50 PM 60.7°F15.9°C 39.8°F4.3°C 46% 10.4 mph SW16.7 kmh SW 15.0 mph24.1 kmh 30.24 in1024.0 mb - 0.00 in0.0 mm 0.01 in0.3 mm
01:40 PM 60.2°F15.7°C 41.4°F5.2°C 50% 3.5 mph WSW5.6 kmh WSW 4.6 mph7.4 kmh 30.24 in1024.0 mb - 0.00 in0.0 mm 0.01 in0.3 mm
01:30 PM 59.5°F15.3°C 40.8°F4.9°C 50% 9.2 mph WSW14.8 kmh WSW 12.7 mph20.4 kmh 30.24 in1024.0 mb - 0.00 in0.0 mm 0.01 in0.3 mm
01:20 PM 59.1°F15.1°C 40.5°F4.7°C 50% 12.7 mph SW20.4 kmh SW 16.1 mph25.9 kmh 30.25 in1024.4 mb - 0.00 in0.0 mm 0.01 in0.3 mm
01:10 PM 58.8°F14.9°C 41.2°F5.1°C 52% 10.4 mph SW16.7 kmh SW 15.0 mph24.1 kmh 30.25 in1024.4 mb - 0.00 in0.0 mm 0.01 in0.3 mm
01:00 PM 58.6°F14.8°C 40.0°F4.4°C 50% 9.2 mph SW14.8 kmh SW 16.1 mph25.9 kmh 30.25 in1024.4 mb - 0.00 in0.0 mm 0.01 in0.3 mm
12:50 PM 58.1°F14.5°C 40.0°F4.4°C 51% 8.1 mph SW13.0 kmh SW 10.4 mph16.7 kmh 30.25 in1024.4 mb - 0.00 in0.0 mm 0.01 in0.3 mm
12:40 PM 57.8°F14.3°C 40.8°F4.9°C 53% 10.4 mph SW16.7 kmh SW 15.0 mph24.1 kmh 30.25 in1024.4 mb - 0.00 in0.0 mm 0.01 in0.3 mm
12:30 PM 58.0°F14.4°C 41.0°F5.0°C 53% 10.4 mph SSW16.7 kmh SSW 11.5 mph18.5 kmh 30.25 in1024.4 mb - 0.00 in0.0 mm 0.01 in0.3 mm
12:20 PM 58.1°F14.5°C 40.6°F4.8°C 52% 10.4 mph SW16.7 kmh SW 15.0 mph24.1 kmh 30.26 in1024.7 mb - 0.00 in0.0 mm 0.01 in0.3 mm
12:10 PM 58.6°F14.8°C 41.0°F5.0°C 52% 8.1 mph SW13.0 kmh SW 8.1 mph13.0 kmh 30.26 in1024.7 mb - 0.00 in0.0 mm 0.01 in0.3 mm
12:00 PM 58.5°F14.7°C 40.9°F4.9°C 52% 10.4 mph SSW16.7 kmh SSW 12.7 mph20.4 kmh 30.26 in1024.7 mb - 0.00 in0.0 mm 0.01 in0.3 mm
11:50 AM 58.9°F14.9°C 41.3°F5.2°C 52% 10.4 mph SSW16.7 kmh SSW 15.0 mph24.1 kmh 30.26 in1024.7 mb - 0.00 in0.0 mm 0.01 in0.3 mm
11:40 AM 58.3°F14.6°C 41.2°F5.1°C 53% 10.4 mph SSW16.7 kmh SSW 13.8 mph22.2 kmh 30.27 in1025.1 mb - 0.00 in0.0 mm 0.01 in0.3 mm
11:30 AM 57.4°F14.1°C 41.9°F5.5°C 56% 11.5 mph SW18.5 kmh SW 13.8 mph22.2 kmh 30.26 in1024.7 mb - 0.00 in0.0 mm 0.01 in0.3 mm
11:20 AM 57.3°F14.1°C 40.7°F4.8°C 54% 10.4 mph SSW16.7 kmh SSW 19.6 mph31.5 kmh 30.27 in1025.1 mb - 0.00 in0.0 mm 0.01 in0.3 mm
11:10 AM 57.3°F14.1°C 40.8°F4.9°C 54% 9.2 mph SW14.8 kmh SW 16.1 mph25.9 kmh 30.27 in1025.1 mb - 0.00 in0.0 mm 0.01 in0.3 mm
11:00 AM 57.0°F13.9°C 41.4°F5.2°C 56% 8.1 mph SSW13.0 kmh SSW 16.1 mph25.9 kmh 30.27 in1025.1 mb - 0.00 in0.0 mm 0.01 in0.3 mm
10:50 AM 56.4°F13.6°C 40.4°F4.7°C 55% 10.4 mph SW16.7 kmh SW 15.0 mph24.1 kmh 30.27 in1025.1 mb - 0.00 in0.0 mm 0.01 in0.3 mm
10:40 AM 57.0°F13.9°C 41.4°F5.2°C 56% 9.2 mph SW14.8 kmh SW 11.5 mph18.5 kmh 30.27 in1025.1 mb - 0.00 in0.0 mm 0.01 in0.3 mm
10:30 AM 56.2°F13.4°C 41.2°F5.1°C 57% 12.7 mph SW20.4 kmh SW 17.3 mph27.8 kmh 30.27 in1025.1 mb - 0.00 in0.0 mm 0.01 in0.3 mm
10:20 AM 56.3°F13.5°C 40.8°F4.9°C 56% 10.4 mph SW16.7 kmh SW 11.5 mph18.5 kmh 30.27 in1025.1 mb - 0.00 in0.0 mm 0.01 in0.3 mm
10:10 AM 55.9°F13.3°C 42.6°F5.9°C 61% 11.5 mph SSW18.5 kmh SSW 13.8 mph22.2 kmh 30.27 in1025.1 mb - 0.00 in0.0 mm 0.01 in0.3 mm
10:00 AM 55.9°F13.3°C 42.6°F5.9°C 61% 11.5 mph SW18.5 kmh SW 13.8 mph22.2 kmh 30.28 in1025.4 mb - 0.00 in0.0 mm 0.01 in0.3 mm
09:50 AM 55.6°F13.1°C 43.6°F6.4°C 64% 6.9 mph SW11.1 kmh SW 10.4 mph16.7 kmh 30.28 in1025.4 mb - 0.01 in0.3 mm 0.01 in0.3 mm
09:40 AM 55.0°F12.8°C 43.9°F6.6°C 66% 8.1 mph WSW13.0 kmh WSW 13.8 mph22.2 kmh 30.28 in1025.4 mb - 0.01 in0.3 mm 0.01 in0.3 mm
09:30 AM 54.3°F12.4°C 43.2°F6.2°C 66% 9.2 mph SSW14.8 kmh SSW 12.7 mph20.4 kmh 30.28 in1025.4 mb - 0.01 in0.3 mm 0.01 in0.3 mm
09:20 AM 54.0°F12.2°C 43.3°F6.3°C 67% 10.4 mph SW16.7 kmh SW 18.4 mph29.6 kmh 30.28 in1025.4 mb - 0.01 in0.3 mm 0.01 in0.3 mm
09:10 AM 53.2°F11.8°C 44.0°F6.7°C 71% 10.4 mph SW16.7 kmh SW 13.8 mph22.2 kmh 30.28 in1025.4 mb - 0.01 in0.3 mm 0.01 in0.3 mm
09:00 AM 52.2°F11.2°C 44.5°F6.9°C 75% 3.5 mph SW5.6 kmh SW 6.9 mph11.1 kmh 30.28 in1025.4 mb - 0.01 in0.3 mm 0.01 in0.3 mm
08:50 AM 51.2°F10.7°C 44.5°F6.9°C 78% 6.9 mph WSW11.1 kmh WSW 10.4 mph16.7 kmh 30.28 in1025.4 mb - 0.00 in0.0 mm 0.01 in0.3 mm
08:40 AM 50.1°F10.1°C 45.1°F7.3°C 83% 5.8 mph WSW9.3 kmh WSW 11.5 mph18.5 kmh 30.28 in1025.4 mb - 0.00 in0.0 mm 0.01 in0.3 mm
08:30 AM 49.0°F9.4°C 45.6°F7.6°C 88% 4.6 mph SW7.4 kmh SW 9.2 mph14.8 kmh 30.28 in1025.4 mb - 0.00 in0.0 mm 0.01 in0.3 mm
08:20 AM 47.8°F8.8°C 45.0°F7.2°C 90% 3.5 mph SW5.6 kmh SW 8.1 mph13.0 kmh 30.27 in1025.1 mb - 0.00 in0.0 mm 0.01 in0.3 mm
08:10 AM 46.8°F8.2°C 44.3°F6.8°C 91% 6.9 mph WSW11.1 kmh WSW 9.2 mph14.8 kmh 30.27 in1025.1 mb - 0.00 in0.0 mm 0.01 in0.3 mm
08:00 AM 45.5°F7.5°C 43.4°F6.3°C 92% 4.6 mph WSW7.4 kmh WSW 8.1 mph13.0 kmh 30.27 in1025.1 mb - 0.00 in0.0 mm 0.01 in0.3 mm
07:50 AM 44.2°F6.8°C 42.0°F5.6°C 92% 4.6 mph W7.4 kmh W 6.9 mph11.1 kmh 30.27 in1025.1 mb - 0.00 in0.0 mm 0.01 in0.3 mm
07:40 AM 43.1°F6.2°C 40.9°F4.9°C 92% 3.5 mph WSW5.6 kmh WSW 5.8 mph9.3 kmh 30.27 in1025.1 mb - 0.00 in0.0 mm 0.01 in0.3 mm
07:30 AM 41.9°F5.5°C 39.7°F4.3°C 92% 2.3 mph WSW3.7 kmh WSW 4.6 mph7.4 kmh 30.26 in1024.7 mb - 0.00 in0.0 mm 0.01 in0.3 mm
07:20 AM 40.8°F4.9°C 38.4°F3.6°C 91% 2.3 mph WSW3.7 kmh WSW 3.5 mph5.6 kmh 30.27 in1025.1 mb - 0.00 in0.0 mm 0.01 in0.3 mm
07:10 AM 39.8°F4.3°C 37.4°F3.0°C 91% 1.2 mph WSW1.9 kmh WSW 3.5 mph5.6 kmh 30.26 in1024.7 mb - 0.00 in0.0 mm 0.01 in0.3 mm
07:00 AM 39.1°F3.9°C 36.4°F2.4°C 90% 2.3 mph SW3.7 kmh SW 3.5 mph5.6 kmh 30.25 in1024.4 mb - 0.00 in0.0 mm 0.01 in0.3 mm
06:50 AM 38.7°F3.7°C 35.7°F2.1°C 89% 1.2 mph SSW1.9 kmh SSW 1.2 mph1.9 kmh 30.25 in1024.4 mb - 0.00 in0.0 mm 0.01 in0.3 mm
06:40 AM 38.7°F3.7°C 35.7°F2.1°C 89% 1.2 mph SSW1.9 kmh SSW 2.3 mph3.7 kmh 30.25 in1024.4 mb - 0.00 in0.0 mm 0.01 in0.3 mm
06:30 AM 38.8°F3.8°C 35.8°F2.1°C 89% 2.3 mph SSW3.7 kmh SSW 2.3 mph3.7 kmh 30.25 in1024.4 mb - 0.00 in0.0 mm 0.01 in0.3 mm
06:20 AM 39.0°F3.9°C 36.0°F2.2°C 89% 1.2 mph S1.9 kmh S 2.3 mph3.7 kmh 30.24 in1024.0 mb - 0.00 in0.0 mm 0.01 in0.3 mm
06:10 AM 39.2°F4.0°C 36.2°F2.3°C 89% 1.2 mph SW1.9 kmh SW 2.3 mph3.7 kmh 30.24 in1024.0 mb - 0.00 in0.0 mm 0.01 in0.3 mm
06:00 AM 39.4°F4.1°C 36.4°F2.4°C 89% 2.3 mph SW3.7 kmh SW 3.5 mph5.6 kmh 30.23 in1023.7 mb - 0.00 in0.0 mm 0.01 in0.3 mm
05:50 AM 39.7°F4.3°C 36.7°F2.6°C 89% 1.2 mph SSW1.9 kmh SSW 2.3 mph3.7 kmh 30.23 in1023.7 mb - 0.00 in0.0 mm 0.01 in0.3 mm
05:40 AM 40.0°F4.4°C 37.0°F2.8°C 89% 2.3 mph SSW3.7 kmh SSW 3.5 mph5.6 kmh 30.23 in1023.7 mb - 0.00 in0.0 mm 0.01 in0.3 mm
05:30 AM 40.3°F4.6°C 37.3°F2.9°C 89% 2.3 mph S3.7 kmh S 3.5 mph5.6 kmh 30.22 in1023.4 mb - 0.00 in0.0 mm 0.01 in0.3 mm
05:20 AM 40.6°F4.8°C 37.6°F3.1°C 89% 1.2 mph SW1.9 kmh SW 2.3 mph3.7 kmh 30.22 in1023.4 mb - 0.00 in0.0 mm 0.01 in0.3 mm
05:10 AM 40.8°F4.9°C 37.8°F3.2°C 89% 1.2 mph SW1.9 kmh SW 2.3 mph3.7 kmh 30.22 in1023.4 mb - 0.00 in0.0 mm 0.01 in0.3 mm
05:00 AM 41.1°F5.1°C 38.1°F3.4°C 89% 2.3 mph SW3.7 kmh SW 3.5 mph5.6 kmh 30.21 in1023.0 mb - 0.00 in0.0 mm 0.01 in0.3 mm
04:50 AM 41.4°F5.2°C 38.4°F3.6°C 89% 1.2 mph SW1.9 kmh SW 2.3 mph3.7 kmh 30.21 in1023.0 mb - 0.00 in0.0 mm 0.01 in0.3 mm
04:40 AM 41.9°F5.5°C 38.9°F3.8°C 89% 1.2 mph SW1.9 kmh SW 1.2 mph1.9 kmh 30.21 in1023.0 mb - 0.00 in0.0 mm 0.01 in0.3 mm
04:30 AM 42.3°F5.7°C 39.3°F4.1°C 89% Calm Calm 2.3 mph3.7 kmh 30.21 in1023.0 mb - 0.00 in0.0 mm 0.01 in0.3 mm
04:20 AM 42.5°F5.8°C 39.5°F4.2°C 89% Calm Calm 1.2 mph1.9 kmh 30.20 in1022.7 mb - 0.00 in0.0 mm 0.01 in0.3 mm
04:10 AM 42.7°F5.9°C 39.7°F4.3°C 89% 1.2 mph SW1.9 kmh SW 3.5 mph5.6 kmh 30.20 in1022.7 mb - 0.00 in0.0 mm 0.01 in0.3 mm
04:00 AM 42.8°F6.0°C 40.1°F4.5°C 90% 3.5 mph WSW5.6 kmh WSW 5.8 mph9.3 kmh 30.19 in1022.4 mb - 0.00 in0.0 mm 0.01 in0.3 mm
03:50 AM 43.1°F6.2°C 40.4°F4.7°C 90% 4.6 mph SW7.4 kmh SW 6.9 mph11.1 kmh 30.19 in1022.4 mb - 0.00 in0.0 mm 0.01 in0.3 mm
03:40 AM 43.4°F6.3°C 40.4°F4.7°C 89% 5.8 mph SW9.3 kmh SW 8.1 mph13.0 kmh 30.19 in1022.4 mb - 0.00 in0.0 mm 0.01 in0.3 mm
03:30 AM 43.6°F6.4°C 40.6°F4.8°C 89% 4.6 mph SW7.4 kmh SW 4.6 mph7.4 kmh 30.19 in1022.4 mb - 0.00 in0.0 mm 0.01 in0.3 mm
03:20 AM 43.8°F6.6°C 41.1°F5.1°C 90% 2.3 mph SW3.7 kmh SW 3.5 mph5.6 kmh 30.19 in1022.4 mb - 0.00 in0.0 mm 0.01 in0.3 mm
03:10 AM 44.1°F6.7°C 41.4°F5.2°C 90% 5.8 mph SW9.3 kmh SW 9.2 mph14.8 kmh 30.18 in1022.0 mb - 0.00 in0.0 mm 0.01 in0.3 mm
03:00 AM 44.3°F6.8°C 41.6°F5.3°C 90% 5.8 mph SW9.3 kmh SW 6.9 mph11.1 kmh 30.19 in1022.4 mb - 0.00 in0.0 mm 0.01 in0.3 mm
02:50 AM 44.5°F6.9°C 41.7°F5.4°C 90% 4.6 mph SW7.4 kmh SW 6.9 mph11.1 kmh 30.19 in1022.4 mb - 0.00 in0.0 mm 0.01 in0.3 mm
02:40 AM 44.7°F7.1°C 41.9°F5.5°C 90% 4.6 mph SW7.4 kmh SW 8.1 mph13.0 kmh 30.19 in1022.4 mb - 0.00 in0.0 mm 0.01 in0.3 mm
02:30 AM 44.8°F7.1°C 42.0°F5.6°C 90% 3.5 mph SW5.6 kmh SW 4.6 mph7.4 kmh 30.19 in1022.4 mb - 0.00 in0.0 mm 0.01 in0.3 mm
02:20 AM 45.0°F7.2°C 42.2°F5.7°C 90% 5.8 mph SW9.3 kmh SW 9.2 mph14.8 kmh 30.19 in1022.4 mb - 0.00 in0.0 mm 0.01 in0.3 mm
02:10 AM 45.1°F7.3°C 42.1°F5.6°C 89% 6.9 mph SW11.1 kmh SW 8.1 mph13.0 kmh 30.19 in1022.4 mb - 0.00 in0.0 mm 0.01 in0.3 mm
02:00 AM 45.1°F7.3°C 42.1°F5.6°C 89% 6.9 mph SSW11.1 kmh SSW 9.2 mph14.8 kmh 30.19 in1022.4 mb - 0.00 in0.0 mm 0.01 in0.3 mm
01:50 AM 45.2°F7.3°C 42.2°F5.7°C 89% 4.6 mph SW7.4 kmh SW 6.9 mph11.1 kmh 30.19 in1022.4 mb - 0.00 in0.0 mm 0.01 in0.3 mm
01:40 AM 45.3°F7.4°C 42.2°F5.7°C 89% 6.9 mph SW11.1 kmh SW 9.2 mph14.8 kmh 30.19 in1022.4 mb - 0.00 in0.0 mm 0.01 in0.3 mm
01:30 AM 45.5°F7.5°C 42.2°F5.7°C 88% 2.3 mph SSW3.7 kmh SSW 5.8 mph9.3 kmh 30.19 in1022.4 mb - 0.00 in0.0 mm 0.01 in0.3 mm
01:20 AM 45.7°F7.6°C 42.3°F5.7°C 88% 2.3 mph SSW3.7 kmh SSW 3.5 mph5.6 kmh 30.19 in1022.4 mb - 0.00 in0.0 mm 0.01 in0.3 mm
01:10 AM 45.9°F7.7°C 42.5°F5.8°C 88% 2.3 mph SW3.7 kmh SW 3.5 mph5.6 kmh 30.18 in1022.0 mb - 0.00 in0.0 mm 0.01 in0.3 mm
01:00 AM 46.1°F7.8°C 42.8°F6.0°C 88% 2.3 mph SW3.7 kmh SW 3.5 mph5.6 kmh 30.18 in1022.0 mb - 0.00 in0.0 mm 0.01 in0.3 mm
12:50 AM 46.4°F8.0°C 43.0°F6.1°C 88% 2.3 mph SW3.7 kmh SW 3.5 mph5.6 kmh 30.18 in1022.0 mb - 0.00 in0.0 mm 0.01 in0.3 mm
12:40 AM 46.6°F8.1°C 43.2°F6.2°C 88% 3.5 mph SW5.6 kmh SW 5.8 mph9.3 kmh 30.18 in1022.0 mb - 0.00 in0.0 mm 0.01 in0.3 mm
12:30 AM 46.8°F8.2°C 43.4°F6.3°C 88% 2.3 mph SSW3.7 kmh SSW 3.5 mph5.6 kmh 30.18 in1022.0 mb - 0.00 in0.0 mm 0.01 in0.3 mm
12:20 AM 46.8°F8.2°C 43.4°F6.3°C 88% 2.3 mph SW3.7 kmh SW 3.5 mph5.6 kmh 30.17 in1021.7 mb - 0.00 in0.0 mm 0.01 in0.3 mm
12:10 AM 46.8°F8.2°C 43.1°F6.2°C 87% 3.5 mph SSW5.6 kmh SSW 3.5 mph5.6 kmh 30.17 in1021.7 mb - 0.00 in0.0 mm 0.01 in0.3 mm
12:00 AM 46.8°F8.2°C 43.1°F6.2°C 87% 3.5 mph SW5.6 kmh SW 6.9 mph11.1 kmh 30.17 in1021.7 mb - 0.01 in0.3 mm 0.01 in0.3 mm